createdAt,value
2018-10-16T00:00:15.085Z,7.67
2018-10-16T00:02:44.257Z,7.51
2018-10-16T00:05:12.839Z,7.42
2018-10-16T00:07:41.386Z,7.40
2018-10-16T00:10:10.494Z,7.37
2018-10-16T00:12:39.182Z,7.30
2018-10-16T00:15:09.305Z,7.29
2018-10-16T00:17:37.868Z,7.33
2018-10-16T00:20:07.219Z,7.40
2018-10-16T00:22:36.074Z,7.54
2018-10-16T00:25:04.634Z,7.52
2018-10-16T00:27:33.195Z,7.34
2018-10-16T00:30:01.779Z,7.30
2018-10-16T00:32:30.433Z,7.23
2018-10-16T00:34:58.966Z,7.32
2018-10-16T00:37:27.561Z,7.38
2018-10-16T00:39:56.097Z,7.39
2018-10-16T00:42:24.650Z,7.09
2018-10-16T00:44:53.193Z,6.96
2018-10-16T00:47:21.758Z,7.05
2018-10-16T00:49:50.295Z,7.08
2018-10-16T00:52:18.859Z,7.01
2018-10-16T00:54:47.438Z,6.91
2018-10-16T00:57:16.047Z,6.90
2018-10-16T00:59:57.778Z,6.95
2018-10-16T01:02:29.920Z,7.04
2018-10-16T01:04:58.582Z,7.00
2018-10-16T01:07:27.164Z,6.95
2018-10-16T01:09:55.700Z,6.94
2018-10-16T01:12:24.267Z,7.01
2018-10-16T01:14:52.790Z,7.01
2018-10-16T01:17:21.363Z,6.95
2018-10-16T01:19:49.889Z,6.96
2018-10-16T01:22:18.453Z,6.99
2018-10-16T01:24:46.977Z,7.03
2018-10-16T01:27:15.580Z,6.91
2018-10-16T01:29:44.118Z,6.77
2018-10-16T01:32:12.652Z,6.69
2018-10-16T01:34:42.249Z,6.62
2018-10-16T01:37:10.816Z,6.66
2018-10-16T01:39:39.376Z,6.71
2018-10-16T01:42:07.915Z,6.74
2018-10-16T01:44:36.494Z,6.70
2018-10-16T01:47:05.282Z,6.70
2018-10-16T01:49:33.839Z,6.70
2018-10-16T01:52:02.381Z,6.68
2018-10-16T01:54:30.937Z,6.53
2018-10-16T01:56:59.483Z,6.48
2018-10-16T01:59:28.054Z,6.59
2018-10-16T02:01:56.603Z,6.64
2018-10-16T02:04:25.157Z,6.55
2018-10-16T02:06:53.698Z,6.51
2018-10-16T02:09:23.015Z,6.45
2018-10-16T02:11:51.559Z,6.49
2018-10-16T02:14:20.117Z,6.56
2018-10-16T02:16:48.640Z,6.58
2018-10-16T02:19:17.204Z,6.57
2018-10-16T02:21:45.738Z,6.57
2018-10-16T02:24:14.367Z,6.51
2018-10-16T02:26:42.905Z,6.37
2018-10-16T02:29:11.472Z,6.31
2018-10-16T02:31:40.003Z,6.31
2018-10-16T02:34:08.537Z,6.36
2018-10-16T02:36:37.122Z,6.40
2018-10-16T02:39:08.208Z,6.40
2018-10-16T02:41:36.887Z,6.39
2018-10-16T02:44:06.253Z,6.40
2018-10-16T02:46:34.823Z,6.39
2018-10-16T02:49:03.352Z,6.44
2018-10-16T02:51:31.902Z,6.46
2018-10-16T02:54:00.440Z,6.35
2018-10-16T02:56:28.994Z,6.27
2018-10-16T02:58:57.543Z,6.25
2018-10-16T03:01:26.383Z,6.20
2018-10-16T03:03:54.917Z,6.29
2018-10-16T03:06:23.481Z,6.40
2018-10-16T03:08:52.055Z,6.48
2018-10-16T03:11:20.618Z,6.55
2018-10-16T03:13:49.154Z,6.52
2018-10-16T03:16:17.739Z,6.37
2018-10-16T03:18:46.281Z,6.32
2018-10-16T03:21:14.851Z,6.30
2018-10-16T03:23:43.377Z,6.26
2018-10-16T03:26:11.935Z,6.25
2018-10-16T03:28:40.473Z,6.26
2018-10-16T03:31:09.037Z,6.25
2018-10-16T03:33:37.599Z,6.18
2018-10-16T03:36:06.677Z,6.13
2018-10-16T03:38:35.249Z,6.17
2018-10-16T03:41:03.834Z,6.17
2018-10-16T03:43:32.399Z,6.17
2018-10-16T03:46:00.958Z,6.16
2018-10-16T03:48:29.483Z,6.13
2018-10-16T03:50:58.062Z,6.15
2018-10-16T03:53:26.717Z,6.15
2018-10-16T03:55:55.270Z,6.11
2018-10-16T03:58:23.798Z,6.08
2018-10-16T04:00:52.343Z,6.08
2018-10-16T04:03:20.862Z,6.08
2018-10-16T04:05:49.489Z,6.00
2018-10-16T04:08:18.063Z,5.85
2018-10-16T04:10:46.641Z,5.73
2018-10-16T04:13:15.205Z,5.76
2018-10-16T04:15:43.790Z,5.84
2018-10-16T04:18:12.319Z,5.89
2018-10-16T04:20:40.898Z,5.90
2018-10-16T04:23:09.406Z,5.95
2018-10-16T04:25:37.934Z,5.87
2018-10-16T04:28:06.704Z,5.82
2018-10-16T04:30:35.264Z,5.75
2018-10-16T04:33:03.757Z,5.72
2018-10-16T04:35:32.301Z,5.68
2018-10-16T04:38:00.833Z,5.72
2018-10-16T04:40:29.347Z,5.77
2018-10-16T04:42:57.886Z,5.83
2018-10-16T04:45:26.404Z,5.89
2018-10-16T04:47:54.959Z,5.92
2018-10-16T04:50:23.483Z,6.06
2018-10-16T04:52:52.025Z,6.14
2018-10-16T04:55:20.632Z,6.14
2018-10-16T04:57:49.121Z,6.12
2018-10-16T05:00:17.631Z,6.04
2018-10-16T05:02:46.221Z,6.02
2018-10-16T05:05:21.533Z,5.95
2018-10-16T05:07:50.771Z,5.77
2018-10-16T05:10:20.004Z,5.65
2018-10-16T05:12:48.638Z,5.61
2018-10-16T05:15:26.993Z,5.70
2018-10-16T05:17:55.935Z,5.72
2018-10-16T05:20:24.462Z,5.77
2018-10-16T05:22:53.345Z,5.77
2018-10-16T05:25:21.931Z,5.68
2018-10-16T05:27:50.525Z,5.62
2018-10-16T05:30:19.104Z,5.59
2018-10-16T05:32:47.691Z,5.50
2018-10-16T05:35:16.216Z,5.52
2018-10-16T05:37:44.767Z,5.63
2018-10-16T05:40:13.289Z,5.50
2018-10-16T05:42:41.819Z,5.46
2018-10-16T05:45:12.278Z,5.43
2018-10-16T05:47:41.983Z,5.53
2018-10-16T05:50:11.080Z,5.48
2018-10-16T05:52:39.630Z,5.41
2018-10-16T05:55:08.486Z,5.39
2018-10-16T05:57:37.082Z,5.46
2018-10-16T06:00:17.839Z,5.58
2018-10-16T06:02:47.455Z,5.64
2018-10-16T06:05:15.986Z,5.75
2018-10-16T06:07:44.956Z,5.84
2018-10-16T06:10:13.878Z,5.84
2018-10-16T06:12:42.442Z,5.88
2018-10-16T06:15:11.697Z,5.89
2018-10-16T06:17:40.223Z,5.83
2018-10-16T06:20:11.488Z,5.88
2018-10-16T06:22:40.095Z,5.90
2018-10-16T06:25:09.593Z,5.96
2018-10-16T06:27:38.422Z,6.20
2018-10-16T06:30:07.092Z,6.24
2018-10-16T06:32:35.973Z,6.49
2018-10-16T06:35:04.536Z,6.69
2018-10-16T06:37:33.079Z,6.85
2018-10-16T06:40:01.613Z,6.84
2018-10-16T06:42:30.132Z,6.85
2018-10-16T06:44:58.662Z,6.97
2018-10-16T06:47:27.275Z,7.15
2018-10-16T06:49:55.728Z,7.33
2018-10-16T06:52:24.254Z,7.51
2018-10-16T06:54:52.808Z,7.69
2018-10-16T06:57:21.334Z,7.89
2018-10-16T06:59:49.879Z,8.01
2018-10-16T07:02:18.392Z,7.98
2018-10-16T07:04:47.266Z,8.06
2018-10-16T07:07:15.993Z,8.17
2018-10-16T07:09:44.364Z,8.30
2018-10-16T07:12:12.904Z,8.52
2018-10-16T07:14:41.414Z,8.72
2018-10-16T07:17:09.955Z,8.87
2018-10-16T07:19:38.462Z,8.97
2018-10-16T07:22:10.165Z,9.15
2018-10-16T07:24:38.719Z,9.41
2018-10-16T07:27:07.273Z,9.69
2018-10-16T07:29:35.987Z,10.00
2018-10-16T07:32:05.366Z,10.33
2018-10-16T07:34:34.335Z,10.61
2018-10-16T07:37:02.948Z,10.80
2018-10-16T07:39:31.461Z,10.90
2018-10-16T07:42:00.054Z,10.93
2018-10-16T07:44:28.563Z,11.02
2018-10-16T07:46:57.146Z,11.16
2018-10-16T07:49:25.673Z,11.30
2018-10-16T07:51:54.237Z,11.48
2018-10-16T07:54:22.759Z,11.67
2018-10-16T07:56:51.598Z,11.82
2018-10-16T07:59:20.132Z,12.02
2018-10-16T08:01:49.258Z,12.19
2018-10-16T08:04:17.780Z,12.36
2018-10-16T08:06:46.345Z,12.59
2018-10-16T08:09:16.409Z,12.84
2018-10-16T08:11:50.028Z,13.03
2018-10-16T08:14:19.431Z,13.23
2018-10-16T08:16:49.302Z,13.29
2018-10-16T08:19:17.814Z,13.30
2018-10-16T08:21:47.241Z,13.36
2018-10-16T08:24:15.806Z,13.45
2018-10-16T08:26:44.366Z,13.58
2018-10-16T08:29:12.879Z,13.77
2018-10-16T08:31:41.396Z,13.97
2018-10-16T08:34:10.060Z,14.17
2018-10-16T08:36:38.561Z,14.41
2018-10-16T08:39:15.910Z,14.65
2018-10-16T08:41:57.011Z,14.89
2018-10-16T08:44:36.666Z,15.09
2018-10-16T08:47:16.532Z,15.29
2018-10-16T08:49:56.346Z,15.48
2018-10-16T08:52:24.886Z,15.63
2018-10-16T08:54:53.461Z,15.78
2018-10-16T08:57:21.945Z,15.89
2018-10-16T08:59:50.495Z,16.00
2018-10-16T09:02:19.003Z,16.10
2018-10-16T09:04:47.545Z,16.22
2018-10-16T09:07:16.070Z,16.33
2018-10-16T09:09:44.619Z,16.46
2018-10-16T09:12:13.133Z,16.60
2018-10-16T09:14:41.684Z,16.78
2018-10-16T09:17:10.284Z,17.00
2018-10-16T09:19:38.818Z,17.15
2018-10-16T09:22:07.360Z,17.25
2018-10-16T09:24:35.913Z,17.36
2018-10-16T09:27:04.457Z,17.46
2018-10-16T09:29:33.055Z,17.47
2018-10-16T09:32:01.618Z,17.60
2018-10-16T09:34:30.198Z,17.74
2018-10-16T09:36:58.733Z,17.87
2018-10-16T09:39:27.290Z,17.99
2018-10-16T09:41:55.822Z,18.08
2018-10-16T09:44:24.371Z,18.16
2018-10-16T09:46:52.892Z,18.24
2018-10-16T09:49:21.438Z,18.35
2018-10-16T09:51:49.950Z,18.47
2018-10-16T09:54:18.502Z,18.59
2018-10-16T09:56:47.015Z,18.69
2018-10-16T09:59:15.549Z,18.79
2018-10-16T10:01:46.476Z,18.96
2018-10-16T10:04:15.097Z,19.08
2018-10-16T10:06:43.626Z,19.20
2018-10-16T10:09:13.279Z,19.26
2018-10-16T10:11:42.221Z,19.34
2018-10-16T10:14:10.798Z,19.41
2018-10-16T10:16:39.644Z,19.50
2018-10-16T10:19:08.195Z,19.63
2018-10-16T10:21:36.818Z,19.72
2018-10-16T10:24:06.212Z,19.81
2018-10-16T10:26:34.777Z,19.94
2018-10-16T10:29:03.302Z,20.02
2018-10-16T10:31:31.855Z,20.16
2018-10-16T10:34:00.375Z,20.19
2018-10-16T10:36:28.925Z,20.30
2018-10-16T10:38:57.443Z,20.36
2018-10-16T10:41:25.977Z,20.44
2018-10-16T10:43:54.487Z,20.56
2018-10-16T10:46:23.041Z,20.64
2018-10-16T10:48:51.544Z,20.67
2018-10-16T10:51:20.434Z,20.74
2018-10-16T10:53:48.653Z,20.78
2018-10-16T10:56:17.202Z,20.76
2018-10-16T10:58:45.721Z,20.81
2018-10-16T11:01:14.258Z,20.83
2018-10-16T11:03:42.836Z,20.91
2018-10-16T11:06:11.334Z,21.04
2018-10-16T11:11:20.354Z,21.12
2018-10-16T11:13:48.879Z,21.21
2018-10-16T11:16:17.408Z,21.21
2018-10-16T11:18:45.898Z,21.28
2018-10-16T11:21:14.563Z,21.38
2018-10-16T11:23:43.002Z,21.40
2018-10-16T11:26:11.532Z,21.45
2018-10-16T11:28:40.039Z,21.47
2018-10-16T11:31:08.530Z,21.53
2018-10-16T11:33:37.061Z,21.51
2018-10-16T11:36:05.709Z,21.47
2018-10-16T11:38:34.246Z,21.49
2018-10-16T11:41:02.748Z,21.55
2018-10-16T11:43:31.277Z,21.62
2018-10-16T11:45:59.831Z,21.68
2018-10-16T11:48:28.374Z,21.77
2018-10-16T11:50:56.944Z,21.84
2018-10-16T11:53:25.540Z,21.93
2018-10-16T11:55:54.112Z,22.04
2018-10-16T11:58:22.661Z,22.13
2018-10-16T12:00:51.198Z,22.24
2018-10-16T12:03:19.737Z,22.26
2018-10-16T12:05:48.254Z,22.24
2018-10-16T12:08:16.882Z,22.20
2018-10-16T12:10:45.433Z,22.27
2018-10-16T12:13:14.038Z,22.41
2018-10-16T12:15:42.532Z,22.53
2018-10-16T12:18:16.467Z,22.58
2018-10-16T12:20:48.462Z,22.63
2018-10-16T12:23:17.012Z,22.71
2018-10-16T12:25:45.537Z,22.76
2018-10-16T12:28:14.100Z,22.78
2018-10-16T12:30:42.605Z,22.73
2018-10-16T12:33:11.236Z,22.77
2018-10-16T12:35:39.701Z,22.78
2018-10-16T12:38:08.271Z,22.71
2018-10-16T12:40:36.780Z,22.70
2018-10-16T12:43:05.596Z,22.73
2018-10-16T12:45:34.167Z,22.77
2018-10-16T12:48:02.754Z,22.76
2018-10-16T12:50:31.262Z,22.83
2018-10-16T12:52:59.830Z,22.80
2018-10-16T12:55:28.368Z,22.79
2018-10-16T12:57:56.934Z,22.75
2018-10-16T13:00:25.471Z,22.82
2018-10-16T13:02:54.020Z,22.77
2018-10-16T13:05:22.638Z,22.77
2018-10-16T13:07:51.213Z,22.78
2018-10-16T13:10:19.940Z,22.79
2018-10-16T13:12:48.500Z,22.81
2018-10-16T13:15:17.774Z,22.80
2018-10-16T13:17:46.317Z,22.81
2018-10-16T13:20:15.668Z,22.63
2018-10-16T13:22:45.570Z,22.64
2018-10-16T13:25:15.157Z,22.64
2018-10-16T13:27:43.769Z,22.66
2018-10-16T13:30:20.044Z,22.57
2018-10-16T13:32:49.533Z,22.55
2018-10-16T13:35:19.294Z,22.57
2018-10-16T13:37:48.400Z,22.61
2018-10-16T13:40:16.982Z,22.55
2018-10-16T13:42:45.680Z,22.37
2018-10-16T13:45:15.760Z,22.15
2018-10-16T13:47:44.283Z,21.90
2018-10-16T13:50:14.368Z,21.67
2018-10-16T13:52:43.158Z,21.53
2018-10-16T13:55:12.425Z,21.51
2018-10-16T13:57:41.486Z,21.48
2018-10-16T14:00:17.463Z,21.51
2018-10-16T14:02:47.295Z,21.60
2018-10-16T14:05:15.978Z,21.77
2018-10-16T14:07:44.582Z,21.93
2018-10-16T14:10:14.320Z,21.97
2018-10-16T14:12:43.842Z,21.77
2018-10-16T14:15:13.001Z,21.56
2018-10-16T14:17:41.561Z,21.41
2018-10-16T14:20:10.636Z,21.53
2018-10-16T14:22:40.318Z,21.68
2018-10-16T14:25:10.533Z,21.75
2018-10-16T14:27:39.471Z,21.76
2018-10-16T14:30:09.678Z,21.81
2018-10-16T14:32:38.345Z,21.80
2018-10-16T14:35:07.609Z,21.81
2018-10-16T14:37:36.233Z,21.70
2018-10-16T14:40:04.981Z,21.60
2018-10-16T14:42:33.479Z,21.42
2018-10-16T14:45:02.001Z,21.24
2018-10-16T14:47:30.544Z,21.08
2018-10-16T14:49:59.076Z,20.93
2018-10-16T14:52:27.620Z,20.79
2018-10-16T14:54:56.160Z,20.67
2018-10-16T14:57:24.725Z,20.54
2018-10-16T14:59:53.253Z,20.48
2018-10-16T15:02:21.817Z,20.42
2018-10-16T15:04:50.379Z,20.38
2018-10-16T15:07:19.019Z,20.38
2018-10-16T15:09:47.565Z,20.34
2018-10-16T15:12:16.135Z,20.33
2018-10-16T15:14:44.695Z,20.28
2018-10-16T15:17:13.264Z,20.17
2018-10-16T15:19:41.807Z,20.11
2018-10-16T15:22:10.462Z,20.06
2018-10-16T15:24:38.926Z,20.03
2018-10-16T15:27:07.501Z,20.02
2018-10-16T15:29:36.098Z,19.90
2018-10-16T15:32:04.735Z,19.75
2018-10-16T15:34:33.242Z,19.61
2018-10-16T15:37:01.790Z,19.50
2018-10-16T15:39:30.361Z,19.36
2018-10-16T15:41:58.938Z,19.29
2018-10-16T15:44:27.787Z,19.28
2018-10-16T15:46:56.330Z,19.25
2018-10-16T15:49:24.887Z,19.17
2018-10-16T15:51:53.579Z,19.15
2018-10-16T15:54:22.127Z,19.11
2018-10-16T15:56:50.706Z,19.09
2018-10-16T15:59:19.250Z,18.99
2018-10-16T16:01:47.784Z,18.80
2018-10-16T16:04:16.353Z,18.55
2018-10-16T16:06:44.874Z,18.37
2018-10-16T16:09:13.431Z,18.18
2018-10-16T16:11:41.984Z,18.06
2018-10-16T16:14:10.577Z,17.96
2018-10-16T16:16:39.081Z,17.80
2018-10-16T16:19:07.680Z,17.67
2018-10-16T16:21:36.236Z,17.58
2018-10-16T16:24:04.861Z,17.48
2018-10-16T16:26:33.410Z,17.40
2018-10-16T16:29:01.930Z,17.39
2018-10-16T16:31:30.475Z,17.39
2018-10-16T16:33:59.046Z,17.32
2018-10-16T16:36:27.588Z,17.24
2018-10-16T16:38:56.167Z,17.17
2018-10-16T16:41:24.723Z,17.20
2018-10-16T16:43:53.377Z,17.25
2018-10-16T16:46:21.846Z,17.25
2018-10-16T16:48:50.353Z,17.23
2018-10-16T16:51:18.920Z,17.19
2018-10-16T16:53:47.440Z,17.11
2018-10-16T16:56:16.066Z,16.96
2018-10-16T16:58:44.523Z,16.80
2018-10-16T17:01:13.072Z,16.69
2018-10-16T17:03:41.606Z,16.55
2018-10-16T17:06:10.147Z,16.48
2018-10-16T17:08:38.674Z,16.49
2018-10-16T17:11:07.311Z,16.45
2018-10-16T17:13:35.831Z,16.33
2018-10-16T17:16:04.392Z,16.21
2018-10-16T17:18:32.921Z,16.17
2018-10-16T17:21:01.464Z,16.19
2018-10-16T17:23:29.979Z,16.17
2018-10-16T17:25:58.694Z,16.07
2018-10-16T17:28:27.087Z,15.93
2018-10-16T17:30:55.588Z,15.84
2018-10-16T17:33:24.134Z,15.76
2018-10-16T17:35:52.651Z,15.66
2018-10-16T17:38:21.210Z,15.57
2018-10-16T17:40:49.734Z,15.46
2018-10-16T17:43:18.260Z,15.42
2018-10-16T17:45:46.764Z,15.43
2018-10-16T17:48:15.394Z,15.46
2018-10-16T17:50:43.872Z,15.45
2018-10-16T17:53:12.407Z,15.42
2018-10-16T17:55:40.915Z,15.29
2018-10-16T17:58:09.473Z,15.18
2018-10-16T18:00:38.004Z,15.09
2018-10-16T18:03:06.827Z,15.02
2018-10-16T18:05:35.335Z,15.01
2018-10-16T18:08:03.885Z,15.00
2018-10-16T18:10:32.397Z,15.00
2018-10-16T18:13:00.939Z,14.97
2018-10-16T18:15:29.465Z,14.90
2018-10-16T18:17:58.019Z,14.80
2018-10-16T18:20:26.528Z,14.67
2018-10-16T18:22:55.103Z,14.57
2018-10-16T18:25:23.618Z,14.46
2018-10-16T18:27:52.133Z,14.39
2018-10-16T18:30:20.690Z,14.35
2018-10-16T18:32:49.189Z,14.36
2018-10-16T18:35:17.727Z,14.37
2018-10-16T18:37:46.304Z,14.42
2018-10-16T18:40:15.157Z,14.46
2018-10-16T18:42:43.685Z,14.44
2018-10-16T18:45:13.669Z,14.35
2018-10-16T18:47:42.125Z,14.28
2018-10-16T18:50:11.902Z,14.17
2018-10-16T18:52:40.575Z,14.09
2018-10-16T18:55:10.850Z,14.06
2018-10-16T18:57:39.409Z,14.05
2018-10-16T19:00:10.313Z,14.08
2018-10-16T19:02:38.930Z,14.07
2018-10-16T19:05:08.433Z,14.02
2018-10-16T19:07:36.991Z,13.92
2018-10-16T19:10:06.294Z,13.91
2018-10-16T19:12:35.143Z,13.89
2018-10-16T19:15:03.811Z,13.87
2018-10-16T19:17:32.328Z,13.83
2018-10-16T19:20:00.936Z,13.83
2018-10-16T19:22:29.441Z,13.78
2018-10-16T19:24:57.990Z,13.73
2018-10-16T19:27:26.561Z,13.69
2018-10-16T19:29:55.123Z,13.67
2018-10-16T19:32:23.621Z,13.68
2018-10-16T19:34:52.139Z,13.68
2018-10-16T19:37:20.730Z,13.66
2018-10-16T19:39:49.313Z,13.63
2018-10-16T19:42:17.851Z,13.61
2018-10-16T19:44:46.397Z,13.59
2018-10-16T19:47:15.413Z,13.61
2018-10-16T19:49:43.920Z,13.63
2018-10-16T19:52:12.482Z,13.62
2018-10-16T19:54:41.029Z,13.61
2018-10-16T19:57:09.680Z,13.62
2018-10-16T19:59:38.130Z,13.60
2018-10-16T20:02:07.650Z,13.59
2018-10-16T20:04:36.283Z,13.61
2018-10-16T20:07:05.359Z,13.63
2018-10-16T20:09:34.839Z,13.64
2018-10-16T20:12:04.372Z,13.61
2018-10-16T20:14:33.000Z,13.58
2018-10-16T20:17:01.615Z,13.54
2018-10-16T20:19:30.518Z,13.49
2018-10-16T20:21:59.089Z,13.46
2018-10-16T20:24:27.666Z,13.43
2018-10-16T20:26:56.212Z,13.38
2018-10-16T20:29:24.746Z,13.35
2018-10-16T20:31:53.315Z,13.33
2018-10-16T20:34:21.823Z,13.31
2018-10-16T20:36:50.393Z,13.30
2018-10-16T20:39:19.083Z,13.32
2018-10-16T20:41:47.658Z,13.32
2018-10-16T20:44:16.186Z,13.31
2018-10-16T20:46:44.718Z,13.30
2018-10-16T20:49:13.326Z,13.28
2018-10-16T20:51:41.816Z,13.25
2018-10-16T20:54:10.333Z,13.25
2018-10-16T20:56:38.879Z,13.25
2018-10-16T20:59:07.387Z,13.24
2018-10-16T21:01:35.926Z,13.22
2018-10-16T21:04:04.782Z,13.20
2018-10-16T21:06:33.495Z,13.16
2018-10-16T21:09:01.882Z,13.14
2018-10-16T21:11:30.434Z,13.12
2018-10-16T21:13:58.954Z,13.09
2018-10-16T21:16:27.443Z,13.03
2018-10-16T21:18:55.973Z,12.95
2018-10-16T21:21:24.488Z,12.89
2018-10-16T21:23:53.029Z,12.81
2018-10-16T21:26:21.658Z,12.73
2018-10-16T21:28:50.205Z,12.65
2018-10-16T21:31:18.733Z,12.57
2018-10-16T21:33:47.269Z,12.46
2018-10-16T21:36:15.807Z,12.39
2018-10-16T21:38:44.349Z,12.34
2018-10-16T21:41:12.952Z,12.28
2018-10-16T21:43:41.538Z,12.27
2018-10-16T21:46:10.052Z,12.24
2018-10-16T21:48:38.578Z,12.16
2018-10-16T21:51:07.094Z,12.07
2018-10-16T21:53:35.609Z,11.93
2018-10-16T21:56:04.197Z,11.81
2018-10-16T21:58:32.729Z,11.72
2018-10-16T22:01:06.475Z,11.67
2018-10-16T22:03:35.027Z,11.63
2018-10-16T22:06:03.556Z,11.58
2018-10-16T22:08:32.090Z,11.54
2018-10-16T22:11:00.636Z,11.53
2018-10-16T22:13:29.180Z,11.49
2018-10-16T22:15:57.697Z,11.47
2018-10-16T22:18:26.236Z,11.43
2018-10-16T22:20:54.779Z,11.39
2018-10-16T22:23:23.312Z,11.31
2018-10-16T22:25:51.825Z,11.23
2018-10-16T22:28:20.393Z,11.19
2018-10-16T22:30:48.901Z,11.18
2018-10-16T22:33:17.440Z,11.14
2018-10-16T22:35:45.966Z,11.07
2018-10-16T22:38:14.493Z,11.01
2018-10-16T22:40:42.984Z,11.05
2018-10-16T22:43:11.583Z,11.06
2018-10-16T22:45:40.088Z,11.09
2018-10-16T22:48:08.638Z,11.10
2018-10-16T22:50:37.207Z,11.10
2018-10-16T22:53:05.877Z,10.98
2018-10-16T22:55:34.403Z,10.91
2018-10-16T22:58:02.942Z,10.95
2018-10-16T23:00:31.450Z,10.79
2018-10-16T23:02:59.989Z,10.59
2018-10-16T23:05:28.514Z,10.48
2018-10-16T23:07:57.069Z,10.45
2018-10-16T23:10:25.585Z,10.41
2018-10-16T23:13:00.851Z,10.38
2018-10-16T23:15:29.336Z,10.36
2018-10-16T23:17:57.879Z,10.35
2018-10-16T23:20:26.456Z,10.33
2018-10-16T23:22:55.148Z,10.32
2018-10-16T23:25:23.655Z,10.30
2018-10-16T23:27:52.249Z,10.27
2018-10-16T23:30:20.803Z,10.25
2018-10-16T23:32:49.423Z,10.22
2018-10-16T23:35:18.010Z,10.17
2018-10-16T23:37:46.531Z,10.11
2018-10-16T23:40:15.078Z,10.07
2018-10-16T23:42:43.599Z,10.10
2018-10-16T23:45:12.146Z,10.10
2018-10-16T23:47:40.669Z,9.98
2018-10-16T23:50:09.230Z,9.95
2018-10-16T23:52:37.746Z,9.94
2018-10-16T23:55:08.035Z,9.95
2018-10-16T23:57:36.544Z,9.87
